Grafton, WI (53024)

4:51 PM CDT on July 27, 2016 (GMT -0500)
Lions Den Gorge | | Change Station

Elev 709 ft 43.34 °N, 87.90 °W | Updated 29 seconds ago

Overcast
Overcast
76.6 °F
Feels Like 78 °F
N
4.0
Wind Variable Wind from NNE
Gusts 9.0 mph

Today
High -- | Low -- °F
--% Chance of Precip.
Yesterday
High -- | Low -- °F
Precip. -- in
Pressure 29.98 in
Visibility 10.0 miles
Clouds Scattered Clouds 3400 ft
Mostly Cloudy 4400 ft
Overcast 12000 ft
Heat Index 78 °F
Dew Point 67 °F
Humidity 72%
Rainfall 0.00 in
Snow Depth Not available.
5:37 AM 8:18 PM
Last Quarter, 39% visible
METAR KETB 272130Z AUTO 00000KT 10SM -RA SCT034 BKN044 OVC120 20/18 A2998 RMK AO2 P0008
Pressure 29.98 in
Visibility 10.0 miles
Clouds Scattered Clouds 3400 ft
Mostly Cloudy 4400 ft
Overcast 12000 ft
Heat Index 78 °F
Dew Point 67 °F
Humidity 72%
Rainfall 0.00 in
Snow Depth Not available.
5:37 AM 8:18 PM
Last Quarter, 39% visible
METAR KETB 272130Z AUTO 00000KT 10SM -RA SCT034 BKN044 OVC120 20/18 A2998 RMK AO2 P0008

10-Day Weather Forecast

Almanac

Astronomy

Jul. 27, 2016 Rise Set
Actual Time
Civil Twilight
Nautical Twilight
Astronomical Twilight
Moon
Length of Visible Light
Length of Day
Tomorrow will be .
, % of the Moon is Illuminated

Today's Extremes

State Highs State Lows

Community

WunderPhotos

Upload Photos

1,927,944 photos uploaded!

WunderBlog® & News

Nearby

Air Quality

  Air Quality AQ Index Pollutant
Not available.

Snow Depth

Station Depth Elevation

Earthquake Activity

City Distance Mag. Time & Date
Minimum magnitude displayed is 2.5.

Coastal Water Temperatures

Place Temperature

Stations

Nearby Weather Stations

Station Location Temp. Windchill Dew Point Humidity Wind Precip. Elev Updated Type
                   

Watches & Warnings

There are currently no watches in effect.